Time;durP1;ratioP1;P1;durP2;ratioP2;P2;SDS_P1;SDS_P2;PMS_P1;PMS_P2;Temp;Humidity;BMP_temperature;BMP_pressure;BME280_temperature;BME280_humidity;BME280_pressure;Samples;Min_cycle;Max_cycle;Signal;HPM_P1;HPM_P2
2023/06/01 00:00:49;;;;;;;;;;;;;;;11.04;79.49;102154.53;4923422;29;20258;-85
2023/06/01 00:03:16;;;;;;;;;;;;;;;10.93;79.97;102148.13;4928482;29;19926;-87
2023/06/01 00:05:41;;;;;;;;;;;;;;;10.87;79.62;102142.91;4928876;29;19923;-85
2023/06/01 00:08:07;;;;;;;;;;;;;;;10.86;79.66;102142.09;4927483;29;20393;-86
2023/06/01 00:10:33;;;;;;;;;;;;;;;10.84;80.00;102149.56;4912956;29;19918;-84
2023/06/01 00:12:58;;;;;;;;;;;;;;;10.72;80.02;102150.66;4911549;29;19919;-86
2023/06/01 00:15:27;;;;;;;;;;;;;;;10.74;80.45;102153.91;4908636;29;19918;-83
2023/06/01 00:17:52;;;;;;;;;;;;;;;10.75;80.38;102150.16;4912028;29;19918;-85
2023/06/01 00:20:18;;;;;;;;;;;;;;;10.73;80.66;102134.31;4925793;29;20389;-84
2023/06/01 00:22:44;;;;;;;;;;;;;;;10.74;80.35;102146.66;4930211;29;19930;-84
2023/06/01 00:25:11;;;;;;;;;;;;;;;10.75;80.42;102139.44;4897631;29;19927;-85
2023/06/01 00:27:36;;;;;;;;;;;;;;;10.76;80.36;102146.44;4924646;29;19926;-85
2023/06/01 00:30:02;;;;;;;;;;;;;;;10.86;80.20;102149.34;4938859;29;20382;-86
2023/06/01 00:32:28;;;;;;;;;;;;;;;10.89;80.37;102136.25;4926315;29;20013;-85
2023/06/01 00:34:53;;;;;;;;;;;;;;;10.82;81.33;102134.75;4925838;29;19949;-87
2023/06/01 00:37:19;;;;;;;;;;;;;;;10.85;80.82;102137.00;4909370;29;20009;-85
2023/06/01 00:39:44;;;;;;;;;;;;;;;10.93;80.50;102136.59;4923980;29;19993;-87
2023/06/01 00:42:14;;;;;;;;;;;;;;;10.92;80.71;102137.66;4912638;29;19945;-85
2023/06/01 00:44:39;;;;;;;;;;;;;;;10.91;80.51;102136.84;4943080;29;19924;-86
2023/06/01 00:47:08;;;;;;;;;;;;;;;10.98;79.99;102142.06;4941837;29;19922;-84
2023/06/01 00:49:34;;;;;;;;;;;;;;;10.90;80.86;102137.88;4910412;29;20409;-86
2023/06/01 00:52:00;;;;;;;;;;;;;;;10.91;80.72;102144.09;4912210;29;20430;-85
2023/06/01 00:54:25;;;;;;;;;;;;;;;10.94;81.02;102143.59;4905799;29;19954;-84
2023/06/01 00:56:51;;;;;;;;;;;;;;;10.86;80.41;102135.94;4925605;29;19919;-86
2023/06/01 00:59:17;;;;;;;;;;;;;;;10.87;81.42;102133.00;4905388;29;19918;-87
2023/06/01 01:01:44;;;;;;;;;;;;;;;10.96;80.84;102133.44;4914358;29;20123;-90
2023/06/01 01:04:13;;;;;;;;;;;;;;;10.98;80.76;102135.91;4927341;29;19958;-89
2023/06/01 01:06:48;;;;;;;;;;;;;;;11.01;80.05;102132.72;4944386;29;19926;-88
2023/06/01 01:09:32;;;;;;;;;;;;;;;10.98;79.93;102131.34;4921965;29;20373;-88
2023/06/01 01:12:09;;;;;;;;;;;;;;;10.96;79.24;102125.41;4935412;29;19928;-89
2023/06/01 01:14:50;;;;;;;;;;;;;;;10.90;79.14;102123.66;4916473;29;20013;-88
2023/06/01 01:17:26;;;;;;;;;;;;;;;10.92;79.20;102130.44;4938107;29;20374;-88
2023/06/01 01:20:05;;;;;;;;;;;;;;;10.81;79.07;102128.59;4927521;29;19922;-85
2023/06/01 01:22:51;;;;;;;;;;;;;;;10.81;79.56;102120.56;4908603;29;20064;-88
2023/06/01 01:25:21;;;;;;;;;;;;;;;10.77;78.94;102118.56;4947853;29;19922;-86
2023/06/01 01:28:00;;;;;;;;;;;;;;;10.77;80.05;102126.63;4933153;29;19933;-87
2023/06/01 01:30:27;;;;;;;;;;;;;;;10.78;78.61;102120.22;4911759;29;20334;-85
2023/06/01 01:32:53;;;;;;;;;;;;;;;10.74;79.21;102111.84;4907413;29;19919;-88
2023/06/01 01:35:20;;;;;;;;;;;;;;;10.70;78.75;102121.38;4937620;29;19923;-88
2023/06/01 01:37:54;;;;;;;;;;;;;;;10.74;79.17;102121.75;4918350;29;19925;-88
2023/06/01 01:40:23;;;;;;;;;;;;;;;10.77;79.19;102127.47;4921001;29;19918;-86
2023/06/01 01:42:50;;;;;;;;;;;;;;;10.78;79.35;102123.72;4933649;29;20443;-89
2023/06/01 01:45:15;;;;;;;;;;;;;;;10.82;79.54;102126.72;4932958;29;19923;-86
2023/06/01 01:47:48;;;;;;;;;;;;;;;10.79;79.97;102119.19;4927683;29;19929;-85
2023/06/01 01:50:16;;;;;;;;;;;;;;;10.92;78.51;102118.91;4927238;29;19919;-87
2023/06/01 01:52:43;;;;;;;;;;;;;;;10.86;78.45;102117.16;4924301;29;19918;-86
2023/06/01 01:55:09;;;;;;;;;;;;;;;10.86;79.04;102114.50;4925315;29;19930;-87
2023/06/01 01:57:35;;;;;;;;;;;;;;;10.89;78.13;102109.44;4933689;29;19919;-86
2023/06/01 02:00:02;;;;;;;;;;;;;;;10.85;78.55;102118.22;4942430;29;20009;-86
2023/06/01 02:02:38;;;;;;;;;;;;;;;10.88;78.38;102112.38;4932874;29;19977;-85
2023/06/01 02:05:04;;;;;;;;;;;;;;;10.84;79.43;102108.56;4941002;29;19923;-87
2023/06/01 02:07:30;;;;;;;;;;;;;;;10.86;77.74;102109.13;4938804;28;19923;-86
2023/06/01 02:09:56;;;;;;;;;;;;;;;10.87;78.12;102106.22;4921381;29;19919;-85
2023/06/01 02:12:23;;;;;;;;;;;;;;;10.77;77.47;102105.19;4913054;29;20420;-88
2023/06/01 02:14:49;;;;;;;;;;;;;;;10.79;77.37;102103.09;4928430;29;19926;-85
2023/06/01 02:17:15;;;;;;;;;;;;;;;10.77;77.46;102091.78;4931165;29;19918;-85
2023/06/01 02:19:41;;;;;;;;;;;;;;;10.80;77.58;102094.81;4917900;29;20014;-89
2023/06/01 02:22:07;;;;;;;;;;;;;;;10.80;77.56;102099.34;4908032;29;19926;-88
2023/06/01 02:24:33;;;;;;;;;;;;;;;10.82;76.80;102097.25;4927694;29;19942;-90
2023/06/01 02:26:58;;;;;;;;;;;;;;;10.75;77.19;102083.97;4933742;29;19985;-86
2023/06/01 02:29:24;;;;;;;;;;;;;;;10.73;77.69;102093.31;4919511;29;20286;-86
2023/06/01 02:31:50;;;;;;;;;;;;;;;10.80;77.48;102092.13;4934374;29;19994;-88
2023/06/01 02:34:16;;;;;;;;;;;;;;;10.76;77.61;102098.19;4927404;29;19918;-89
2023/06/01 02:36:42;;;;;;;;;;;;;;;10.71;77.79;102095.44;4915936;29;19925;-90
2023/06/01 02:39:08;;;;;;;;;;;;;;;10.70;77.57;102091.91;4919501;29;19926;-88
2023/06/01 02:41:34;;;;;;;;;;;;;;;10.69;77.06;102097.50;4937656;29;19919;-89
2023/06/01 02:44:00;;;;;;;;;;;;;;;10.59;77.83;102090.09;4944076;29;19926;-90
2023/06/01 02:46:26;;;;;;;;;;;;;;;10.61;77.82;102091.47;4908277;29;19923;-88
2023/06/01 02:48:52;;;;;;;;;;;;;;;10.59;78.04;102093.59;4929689;29;19954;-88
2023/06/01 02:51:18;;;;;;;;;;;;;;;10.67;78.21;102089.72;4932491;29;19923;-86
2023/06/01 02:53:47;;;;;;;;;;;;;;;10.56;78.40;102083.31;4937545;29;19922;-90
2023/06/01 02:56:14;;;;;;;;;;;;;;;10.59;78.32;102085.56;4912289;29;19965;-89
2023/06/01 02:59:06;;;;;;;;;;;;;;;10.56;79.06;102075.28;4920345;29;19926;-90
2023/06/01 03:01:35;;;;;;;;;;;;;;;10.61;78.14;102074.59;4915958;29;19925;-90
2023/06/01 03:04:07;;;;;;;;;;;;;;;10.60;78.10;102076.47;4916016;29;20364;-86
2023/06/01 03:06:37;;;;;;;;;;;;;;;10.63;78.54;102078.69;4923656;29;19922;-91
2023/06/01 03:09:05;;;;;;;;;;;;;;;10.62;77.44;102074.34;4925638;29;19965;-87
2023/06/01 03:11:48;;;;;;;;;;;;;;;10.62;79.54;102076.22;4915601;29;19931;-87
2023/06/01 03:14:14;;;;;;;;;;;;;;;10.62;77.31;102079.72;4932305;29;19918;-88
2023/06/01 03:16:40;;;;;;;;;;;;;;;10.64;77.51;102077.63;4936571;29;19925;-88
2023/06/01 03:19:24;;;;;;;;;;;;;;;10.64;77.29;102077.63;4920104;29;19942;-90
2023/06/01 03:21:53;;;;;;;;;;;;;;;10.66;77.66;102077.38;4922331;29;19982;-87
2023/06/01 03:24:27;;;;;;;;;;;;;;;10.57;77.50;102068.91;4942121;29;19918;-88
2023/06/01 03:26:56;;;;;;;;;;;;;;;10.58;77.67;102070.53;4941055;29;19946;-89
2023/06/01 03:29:23;;;;;;;;;;;;;;;10.57;78.40;102071.59;4913076;29;19918;-85
2023/06/01 03:31:49;;;;;;;;;;;;;;;10.58;76.64;102064.38;4911801;29;19930;-88
2023/06/01 03:34:19;;;;;;;;;;;;;;;10.59;76.64;102061.44;4933734;29;19923;-88
2023/06/01 03:36:47;;;;;;;;;;;;;;;10.60;76.67;102063.06;4926710;29;19919;-90
2023/06/01 03:39:15;;;;;;;;;;;;;;;10.58;76.65;102065.19;4925106;29;20370;-86
2023/06/01 03:41:43;;;;;;;;;;;;;;;10.61;76.63;102070.03;4917251;29;20367;-87
2023/06/01 03:44:10;;;;;;;;;;;;;;;10.62;76.39;102052.09;4933356;29;19923;-88
2023/06/01 03:46:35;;;;;;;;;;;;;;;10.62;77.13;102063.63;4912314;29;19947;-88
2023/06/01 03:49:01;;;;;;;;;;;;;;;10.63;76.84;102057.25;4931051;29;19918;-85
2023/06/01 03:51:27;;;;;;;;;;;;;;;10.74;76.30;102058.25;4933081;29;19981;-86
2023/06/01 03:53:53;;;;;;;;;;;;;;;10.80;76.61;102053.81;4932822;29;19919;-88
2023/06/01 03:56:19;;;;;;;;;;;;;;;10.77;76.77;102064.97;4919057;29;19929;-90
2023/06/01 03:58:45;;;;;;;;;;;;;;;10.78;76.11;102063.97;4902296;29;19919;-89
2023/06/01 04:01:16;;;;;;;;;;;;;;;10.87;76.88;102046.44;4914804;29;19918;-87
2023/06/01 04:03:43;;;;;;;;;;;;;;;10.81;76.12;102052.75;4925232;29;19919;-86
2023/06/01 04:06:12;;;;;;;;;;;;;;;10.79;75.92;102054.84;4928378;29;19933;-87
2023/06/01 04:08:48;;;;;;;;;;;;;;;10.76;75.86;102055.31;4927213;29;19943;-88
2023/06/01 04:11:14;;;;;;;;;;;;;;;10.83;76.45;102047.94;4934928;29;19918;-87
2023/06/01 04:13:40;;;;;;;;;;;;;;;10.78;76.70;102058.59;4914913;29;19919;-88
2023/06/01 04:16:06;;;;;;;;;;;;;;;10.91;75.86;102052.94;4921679;29;19919;-88
2023/06/01 04:18:33;;;;;;;;;;;;;;;10.83;75.43;102054.13;4924024;29;19926;-87
2023/06/01 04:21:00;;;;;;;;;;;;;;;10.87;75.66;102049.13;4922937;29;20433;-89
2023/06/01 04:23:26;;;;;;;;;;;;;;;10.93;75.51;102058.88;4899863;29;19946;-87
2023/06/01 04:25:53;;;;;;;;;;;;;;;10.91;75.53;102055.63;4907793;29;20338;-88
2023/06/01 04:28:18;;;;;;;;;;;;;;;10.91;75.29;102050.28;4926404;29;19934;-87
2023/06/01 04:30:47;;;;;;;;;;;;;;;10.91;76.05;102042.22;4919283;29;19918;-89
2023/06/01 04:33:13;;;;;;;;;;;;;;;10.96;75.63;102044.19;4930428;29;20006;-88
2023/06/01 04:35:39;;;;;;;;;;;;;;;11.12;75.28;102044.22;4915337;29;20385;-89
2023/06/01 04:38:08;;;;;;;;;;;;;;;11.06;75.53;102039.81;4931466;29;19926;-88
2023/06/01 04:40:34;;;;;;;;;;;;;;;11.16;75.63;102047.22;4914389;29;20013;-86
2023/06/01 04:43:02;;;;;;;;;;;;;;;11.20;75.47;102041.13;4926877;29;19953;-88
2023/06/01 04:45:33;;;;;;;;;;;;;;;11.21;75.04;102042.75;4935134;29;19923;-85
2023/06/01 04:47:59;;;;;;;;;;;;;;;11.32;75.42;102037.59;4914407;29;20391;-87
2023/06/01 04:50:35;;;;;;;;;;;;;;;11.29;74.75;102033.50;4927515;29;19926;-88
2023/06/01 04:53:01;;;;;;;;;;;;;;;11.21;74.09;102041.94;4919907;29;19923;-88
2023/06/01 04:55:27;;;;;;;;;;;;;;;11.17;73.86;102036.25;4932311;29;19926;-88
2023/06/01 04:57:53;;;;;;;;;;;;;;;11.26;74.54;102034.00;4930211;29;19923;-88
2023/06/01 05:00:19;;;;;;;;;;;;;;;11.27;74.76;102030.25;4935484;29;19926;-86
2023/06/01 05:02:47;;;;;;;;;;;;;;;11.31;74.72;102035.94;4932273;29;20339;-88
2023/06/01 05:05:13;;;;;;;;;;;;;;;11.36;75.81;102022.63;4931222;29;19979;-88
2023/06/01 05:07:41;;;;;;;;;;;;;;;11.29;75.01;102021.97;4935200;29;19974;-86
2023/06/01 05:10:08;;;;;;;;;;;;;;;11.43;74.30;102023.28;4948891;29;19965;-89
2023/06/01 05:12:41;;;;;;;;;;;;;;;11.51;74.11;102020.16;4913430;29;20423;-90
2023/06/01 05:15:08;;;;;;;;;;;;;;;11.58;73.65;102018.13;4929732;29;19978;-89
2023/06/01 05:17:34;;;;;;;;;;;;;;;11.66;73.50;102017.75;4917844;29;19926;-86
2023/06/01 05:20:03;;;;;;;;;;;;;;;11.72;73.69;102018.63;4926622;29;19928;-89
2023/06/01 05:22:29;;;;;;;;;;;;;;;11.59;73.69;102011.75;4934913;29;19941;-88
2023/06/01 05:24:56;;;;;;;;;;;;;;;11.57;74.15;102013.84;4919934;29;19923;-84
2023/06/01 05:27:22;;;;;;;;;;;;;;;11.57;74.33;102013.84;4936316;29;19925;-86
2023/06/01 05:29:47;;;;;;;;;;;;;;;11.66;74.30;102011.56;4914130;29;20138;-86
2023/06/01 05:32:13;;;;;;;;;;;;;;;11.71;73.45;102007.06;4925388;29;19925;-86
2023/06/01 05:34:39;;;;;;;;;;;;;;;11.72;73.68;102006.03;4935416;29;19918;-88
2023/06/01 05:37:05;;;;;;;;;;;;;;;11.76;74.69;102006.34;4940883;29;19918;-88
2023/06/01 05:39:30;;;;;;;;;;;;;;;11.71;74.24;101999.00;4930200;29;19974;-85
2023/06/01 05:41:57;;;;;;;;;;;;;;;11.64;73.98;101997.56;4950375;29;19924;-88
2023/06/01 05:44:23;;;;;;;;;;;;;;;11.67;74.87;102003.25;4954044;29;19920;-89
2023/06/01 05:46:49;;;;;;;;;;;;;;;11.61;74.07;102006.13;4903006;29;20286;-88
2023/06/01 05:49:15;;;;;;;;;;;;;;;11.76;74.41;102004.47;4932197;29;20443;-89
2023/06/01 05:51:42;;;;;;;;;;;;;;;11.72;73.53;102011.41;4917708;29;19923;-87
2023/06/01 05:54:09;;;;;;;;;;;;;;;11.79;73.90;101999.69;4938347;29;19922;-89
2023/06/01 05:56:37;;;;;;;;;;;;;;;11.82;73.77;101999.22;4925992;29;19943;-87
2023/06/01 05:59:02;;;;;;;;;;;;;;;11.93;73.30;102006.34;4923589;29;19922;-88
2023/06/01 06:01:28;;;;;;;;;;;;;;;12.03;73.17;102007.28;4923789;29;19923;-87
2023/06/01 06:03:55;;;;;;;;;;;;;;;12.03;73.03;101999.22;4921449;29;19955;-87
2023/06/01 06:06:22;;;;;;;;;;;;;;;11.96;72.98;102014.72;4929957;29;19923;-86
2023/06/01 06:08:48;;;;;;;;;;;;;;;12.07;71.50;102028.28;4942347;28;20017;-88
2023/06/01 06:11:13;;;;;;;;;;;;;;;11.92;72.75;102012.75;4916415;29;19918;-85
2023/06/01 06:13:39;;;;;;;;;;;;;;;11.98;71.29;102006.41;4938562;29;20297;-86
2023/06/01 06:16:05;;;;;;;;;;;;;;;12.01;71.12;102013.97;4948092;29;19918;-88
2023/06/01 06:18:31;;;;;;;;;;;;;;;11.95;71.90;102015.78;4919758;29;19970;-89
2023/06/01 06:20:56;;;;;;;;;;;;;;;12.07;71.18;102018.34;4910555;29;19925;-88
2023/06/01 06:23:22;;;;;;;;;;;;;;;11.94;72.05;102016.03;4928010;29;20370;-89
2023/06/01 06:25:48;;;;;;;;;;;;;;;12.05;71.87;102017.78;4939275;29;20311;-87
2023/06/01 06:28:14;;;;;;;;;;;;;;;11.94;71.30;102014.16;4933451;29;20005;-87
2023/06/01 06:30:40;;;;;;;;;;;;;;;11.93;72.01;102007.16;4944427;29;20298;-87
2023/06/01 06:33:05;;;;;;;;;;;;;;;12.02;71.58;102010.22;4912831;29;19918;-87
2023/06/01 06:35:31;;;;;;;;;;;;;;;12.28;72.16;102006.81;4931410;29;19954;-87
2023/06/01 06:37:56;;;;;;;;;;;;;;;12.02;71.35;101999.47;4930629;29;19923;-87
2023/06/01 06:40:22;;;;;;;;;;;;;;;12.00;71.49;102006.97;4944575;29;19926;-89
2023/06/01 06:42:50;;;;;;;;;;;;;;;12.09;71.25;102004.66;4931929;29;19910;-88
2023/06/01 06:45:16;;;;;;;;;;;;;;;12.07;70.91;102012.97;4928608;29;20009;-88
2023/06/01 06:47:45;;;;;;;;;;;;;;;11.90;73.84;102007.63;4936984;29;20009;-84
2023/06/01 06:50:11;;;;;;;;;;;;;;;11.92;72.20;102015.44;4923190;29;19951;-85
2023/06/01 06:52:38;;;;;;;;;;;;;;;11.94;73.43;102002.59;4930039;29;20275;-85
2023/06/01 06:55:04;;;;;;;;;;;;;;;11.87;73.03;102008.16;4931421;29;19942;-86
2023/06/01 06:57:29;;;;;;;;;;;;;;;12.07;73.11;102014.84;4941812;29;19925;-89
2023/06/01 06:59:55;;;;;;;;;;;;;;;12.14;72.90;102012.81;4929893;29;19923;-86
2023/06/01 07:02:21;;;;;;;;;;;;;;;12.29;71.65;102010.31;4920122;29;19990;-89
2023/06/01 07:04:47;;;;;;;;;;;;;;;12.25;71.73;102018.03;4929768;29;19929;-87
2023/06/01 07:07:12;;;;;;;;;;;;;;;12.32;71.33;102019.72;4933311;29;19933;-90
2023/06/01 07:09:38;;;;;;;;;;;;;;;12.38;71.12;102013.34;4930559;29;20074;-87
2023/06/01 07:12:05;;;;;;;;;;;;;;;12.27;70.87;102010.56;4919374;29;19919;-85
2023/06/01 07:14:31;;;;;;;;;;;;;;;12.51;71.22;102008.41;4942607;29;19919;-87
2023/06/01 07:16:57;;;;;;;;;;;;;;;12.48;70.07;102025.03;4943715;29;19986;-86
2023/06/01 07:19:23;;;;;;;;;;;;;;;12.43;70.08;102008.03;4910091;29;19929;-89
2023/06/01 07:21:49;;;;;;;;;;;;;;;12.40;70.76;102016.63;4925055;29;19923;-85
2023/06/01 07:24:17;;;;;;;;;;;;;;;12.65;70.47;102008.81;4911833;29;20283;-87
2023/06/01 07:26:43;;;;;;;;;;;;;;;12.73;69.84;102010.25;4931577;29;19930;-87
2023/06/01 07:29:09;;;;;;;;;;;;;;;12.72;69.92;102020.19;4934174;29;19922;-87
2023/06/01 07:31:35;;;;;;;;;;;;;;;12.89;69.72;102008.56;4928114;29;19942;-89
2023/06/01 07:34:00;;;;;;;;;;;;;;;12.88;69.56;102017.69;4914949;29;20286;-88
2023/06/01 07:36:27;;;;;;;;;;;;;;;13.25;70.28;102007.00;4949505;29;20353;-87
2023/06/01 07:38:53;;;;;;;;;;;;;;;12.94;70.68;102008.56;4949233;28;19919;-88
2023/06/01 07:41:18;;;;;;;;;;;;;;;13.03;69.75;102004.38;4949257;29;19919;-89
2023/06/01 07:43:45;;;;;;;;;;;;;;;13.18;69.97;102001.81;4906395;29;19919;-89
2023/06/01 07:46:11;;;;;;;;;;;;;;;12.95;70.33;102008.34;4906186;29;20347;-91
2023/06/01 07:48:38;;;;;;;;;;;;;;;12.77;70.87;102001.44;4908942;29;20005;-88
2023/06/01 07:51:04;;;;;;;;;;;;;;;12.80;70.17;102005.47;4922983;28;19918;-88
2023/06/01 07:53:33;;;;;;;;;;;;;;;12.71;70.49;102005.13;4930617;29;19919;-87
2023/06/01 07:55:59;;;;;;;;;;;;;;;12.82;70.53;102004.19;4911640;29;19918;-87
2023/06/01 07:58:24;;;;;;;;;;;;;;;12.60;70.55;102011.47;4932081;29;20013;-87
2023/06/01 08:00:50;;;;;;;;;;;;;;;12.76;70.55;102004.38;4916429;29;19930;-86
2023/06/01 08:03:16;;;;;;;;;;;;;;;12.96;69.71;102004.59;4912018;29;19940;-86
2023/06/01 08:05:42;;;;;;;;;;;;;;;13.12;68.94;102008.22;4943795;29;19938;-88
2023/06/01 08:08:08;;;;;;;;;;;;;;;13.00;68.80;102008.38;4923761;29;19922;-90
2023/06/01 08:10:35;;;;;;;;;;;;;;;13.05;69.00;102003.03;4942691;29;20503;-88
2023/06/01 08:13:02;;;;;;;;;;;;;;;13.24;68.55;102014.28;4931431;29;20013;-87
2023/06/01 08:15:28;;;;;;;;;;;;;;;13.66;67.64;102008.13;4918876;29;19928;-89
2023/06/01 08:17:54;;;;;;;;;;;;;;;13.44;67.41;102020.91;4927477;29;20100;-89
2023/06/01 08:20:23;;;;;;;;;;;;;;;13.51;68.67;102016.91;4938404;29;19976;-89
2023/06/01 08:22:50;;;;;;;;;;;;;;;13.32;67.53;102007.59;4904426;29;19942;-84
2023/06/01 08:25:16;;;;;;;;;;;;;;;13.29;68.61;102017.03;4938651;29;19924;-89
2023/06/01 08:27:43;;;;;;;;;;;;;;;13.04;68.39;102012.19;4933171;29;19926;-89
2023/06/01 08:30:09;;;;;;;;;;;;;;;13.37;67.80;102004.97;4916971;29;20442;-87
2023/06/01 08:32:35;;;;;;;;;;;;;;;13.38;68.02;102006.59;4911200;29;20022;-91
2023/06/01 08:35:01;;;;;;;;;;;;;;;13.63;68.37;101998.69;4907201;29;19954;-89
2023/06/01 08:37:26;;;;;;;;;;;;;;;13.78;67.06;101997.16;4909438;29;19923;-91
2023/06/01 08:39:52;;;;;;;;;;;;;;;13.56;67.27;101991.94;4925990;29;19919;-91
2023/06/01 08:42:30;;;;;;;;;;;;;;;13.78;68.09;101995.28;4909665;29;19932;-88
2023/06/01 08:44:57;;;;;;;;;;;;;;;13.72;66.63;102007.09;4933998;29;19929;-89
2023/06/01 08:47:24;;;;;;;;;;;;;;;13.64;67.37;101999.50;4893869;29;20287;-88
2023/06/01 08:49:53;;;;;;;;;;;;;;;13.30;68.32;101997.09;4898010;29;19925;-87
2023/06/01 08:52:20;;;;;;;;;;;;;;;13.09;68.12;101998.78;4922064;29;20013;-88
2023/06/01 08:54:46;;;;;;;;;;;;;;;13.18;68.75;101998.31;4943268;29;19923;-88
2023/06/01 08:57:11;;;;;;;;;;;;;;;13.33;68.53;101993.09;4911488;29;20279;-90
2023/06/01 08:59:38;;;;;;;;;;;;;;;13.56;68.44;101997.31;4942184;29;20020;-90
2023/06/01 09:02:05;;;;;;;;;;;;;;;13.62;67.72;101993.59;4914252;29;19918;-88
2023/06/01 09:04:35;;;;;;;;;;;;;;;13.59;66.47;101996.78;4921021;29;20283;-89
2023/06/01 09:07:02;;;;;;;;;;;;;;;13.81;67.84;101994.75;4897661;29;19925;-90
2023/06/01 09:09:27;;;;;;;;;;;;;;;13.83;66.69;101998.00;4936449;29;19919;-89
2023/06/01 09:12:12;;;;;;;;;;;;;;;13.53;67.08;101993.22;4919621;29;20263;-88
2023/06/01 09:14:37;;;;;;;;;;;;;;;13.87;67.06;102001.78;4938662;29;19948;-89
2023/06/01 09:17:03;;;;;;;;;;;;;;;14.09;68.34;102001.66;4913981;29;19922;-91
2023/06/01 09:19:44;;;;;;;;;;;;;;;13.74;66.48;101999.56;4937137;29;19927;-90
2023/06/01 09:22:10;;;;;;;;;;;;;;;14.13;67.16;102000.03;4919374;29;19919;-88
2023/06/01 09:24:36;;;;;;;;;;;;;;;14.03;67.36;101999.19;4925497;29;20311;-89
2023/06/01 09:27:01;;;;;;;;;;;;;;;13.92;66.42;101996.44;4921103;29;19926;-89
2023/06/01 09:29:28;;;;;;;;;;;;;;;13.87;66.46;101992.91;4943460;29;19919;-91
2023/06/01 09:31:54;;;;;;;;;;;;;;;13.59;65.82;101996.78;4922772;29;19961;-91
2023/06/01 09:34:20;;;;;;;;;;;;;;;14.07;64.88;101994.91;4950671;29;19945;-91
2023/06/01 09:36:47;;;;;;;;;;;;;;;14.16;63.35;101985.25;4945086;29;20365;-90
2023/06/01 09:39:15;;;;;;;;;;;;;;;13.96;63.22;101985.16;4916076;29;19919;-90
2023/06/01 09:41:59;;;;;;;;;;;;;;;14.85;61.50;101990.31;4919153;29;19918;-90
2023/06/01 09:44:26;;;;;;;;;;;;;;;14.86;59.89;101996.53;4920697;29;19923;-87
2023/06/01 09:47:02;;;;;;;;;;;;;;;14.80;61.96;102008.38;4929842;29;19918;-90
2023/06/01 09:49:29;;;;;;;;;;;;;;;14.55;62.73;101995.63;4943581;29;19946;-89
2023/06/01 09:52:04;;;;;;;;;;;;;;;14.50;62.09;101985.66;4918567;29;19923;-87
2023/06/01 09:54:30;;;;;;;;;;;;;;;14.69;61.79;101994.84;4932562;29;19922;-86
2023/06/01 09:56:57;;;;;;;;;;;;;;;14.81;61.28;101985.72;4948749;29;19919;-89
2023/06/01 09:59:25;;;;;;;;;;;;;;;14.65;61.35;101984.91;4949327;29;19918;-87
2023/06/01 10:01:52;;;;;;;;;;;;;;;14.59;61.77;101980.56;4947890;29;20297;-86
2023/06/01 10:04:23;;;;;;;;;;;;;;;14.84;61.40;101979.81;4907449;29;19918;-86
2023/06/01 10:06:53;;;;;;;;;;;;;;;15.10;60.89;101984.13;4929566;29;19937;-87
2023/06/01 10:09:20;;;;;;;;;;;;;;;14.99;60.26;101966.31;4949034;29;19930;-85
2023/06/01 10:11:47;;;;;;;;;;;;;;;15.30;62.13;101977.91;4945497;29;19990;-85
2023/06/01 10:14:14;;;;;;;;;;;;;;;15.25;59.42;101977.94;4946266;29;19926;-86
2023/06/01 10:16:40;;;;;;;;;;;;;;;15.27;59.95;101973.06;4930064;29;19982;-83
2023/06/01 10:19:07;;;;;;;;;;;;;;;15.32;60.98;101967.69;4935424;29;20020;-85
2023/06/01 10:21:33;;;;;;;;;;;;;;;14.96;60.95;101967.66;4918160;29;19918;-85
2023/06/01 10:23:59;;;;;;;;;;;;;;;15.14;61.23;101963.63;4929383;29;20429;-84
2023/06/01 10:26:26;;;;;;;;;;;;;;;15.20;61.20;101967.13;4913468;29;20037;-86
2023/06/01 10:28:52;;;;;;;;;;;;;;;15.47;60.56;101964.94;4925906;29;19919;-84
2023/06/01 10:31:33;;;;;;;;;;;;;;;15.28;63.10;101959.28;4944292;29;19990;-84
2023/06/01 10:33:59;;;;;;;;;;;;;;;15.40;61.59;101972.53;4926801;29;20286;-85
2023/06/01 10:36:45;;;;;;;;;;;;;;;15.15;60.18;101972.53;4925281;29;19918;-84
2023/06/01 10:39:27;;;;;;;;;;;;;;;14.97;60.00;101971.16;4927909;29;19918;-84
2023/06/01 10:41:57;;;;;;;;;;;;;;;15.11;61.50;101969.56;4933337;29;19990;-85
2023/06/01 10:44:41;;;;;;;;;;;;;;;15.32;60.46;101953.38;4914350;29;19979;-87
2023/06/01 10:47:10;;;;;;;;;;;;;;;14.92;60.30;101955.81;4923200;29;19923;-85
2023/06/01 10:49:50;;;;;;;;;;;;;;;14.81;61.57;101964.97;4915535;29;19954;-86
2023/06/01 10:52:29;;;;;;;;;;;;;;;15.08;60.98;101969.28;4934695;29;20003;-83
2023/06/01 10:55:14;;;;;;;;;;;;;;;15.13;61.58;101969.31;4902988;29;19919;-85
2023/06/01 10:57:40;;;;;;;;;;;;;;;15.27;61.01;101960.38;4919347;29;19919;-85
2023/06/01 11:00:16;;;;;;;;;;;;;;;14.98;60.61;101957.44;4953998;29;19919;-84
2023/06/01 11:02:50;;;;;;;;;;;;;;;15.13;61.79;101966.59;4915397;29;19925;-85
2023/06/01 11:05:38;;;;;;;;;;;;;;;15.24;61.59;101970.91;4935155;28;19926;-87
2023/06/01 11:08:04;;;;;;;;;;;;;;;15.77;56.98;101952.47;4903123;29;20295;-87
2023/06/01 11:10:48;;;;;;;;;;;;;;;16.32;56.48;101950.63;4921999;29;19925;-87
2023/06/01 11:13:21;;;;;;;;;;;;;;;16.40;56.12;101952.75;4918475;29;19919;-86
2023/06/01 11:16:06;;;;;;;;;;;;;;;16.25;59.05;101955.53;4929946;29;20375;-82
2023/06/01 11:18:46;;;;;;;;;;;;;;;16.44;57.68;101948.41;4928485;29;19919;-85
2023/06/01 11:21:21;;;;;;;;;;;;;;;16.39;56.78;101940.31;4919026;29;19954;-85
2023/06/01 11:23:47;;;;;;;;;;;;;;;16.45;56.84;101939.19;4925013;29;19966;-85
2023/06/01 11:26:15;;;;;;;;;;;;;;;16.38;57.07;101941.41;4920989;29;19930;-85
2023/06/01 11:28:41;;;;;;;;;;;;;;;16.67;55.54;101948.81;4917511;29;19942;-84
2023/06/01 11:31:11;;;;;;;;;;;;;;;16.96;53.40;101938.88;4943801;29;19918;-85
2023/06/01 11:33:40;;;;;;;;;;;;;;;16.61;55.03;101943.44;4943902;29;20262;-83
2023/06/01 11:36:10;;;;;;;;;;;;;;;16.87;55.96;101944.09;4915874;29;19968;-83
2023/06/01 11:38:38;;;;;;;;;;;;;;;15.78;56.36;101943.28;4943655;29;19918;-83
2023/06/01 11:41:04;;;;;;;;;;;;;;;15.80;58.69;101941.13;4929855;28;19943;-86
2023/06/01 11:43:33;;;;;;;;;;;;;;;15.56;58.28;101940.91;4952599;28;19923;-83
2023/06/01 11:46:09;;;;;;;;;;;;;;;15.41;59.65;101949.03;4942278;29;20732;-85
2023/06/01 11:48:42;;;;;;;;;;;;;;;15.68;59.75;101948.72;4944602;28;20422;-86
2023/06/01 11:51:20;;;;;;;;;;;;;;;15.90;57.82;101946.50;4915370;29;19926;-83
2023/06/01 11:53:49;;;;;;;;;;;;;;;16.61;57.75;101931.81;4913188;29;19919;-83
2023/06/01 11:56:18;;;;;;;;;;;;;;;16.10;56.32;101948.31;4929698;29;19925;-85
2023/06/01 11:58:44;;;;;;;;;;;;;;;16.41;57.08;101948.97;4941587;29;19925;-82
2023/06/01 12:01:09;;;;;;;;;;;;;;;16.46;54.94;101948.94;4918087;29;19962;-84
2023/06/01 12:03:44;;;;;;;;;;;;;;;16.27;55.11;101939.84;4935142;29;19973;-85
2023/06/01 12:06:26;;;;;;;;;;;;;;;16.24;56.14;101945.81;4915094;29;19976;-84
2023/06/01 12:08:54;;;;;;;;;;;;;;;16.09;55.05;101936.69;4932167;29;19926;-84
2023/06/01 12:11:22;;;;;;;;;;;;;;;16.32;57.96;101942.50;4957706;28;19923;-84
2023/06/01 12:13:49;;;;;;;;;;;;;;;16.16;56.11;101941.00;4946291;29;19919;-87
2023/06/01 12:16:16;;;;;;;;;;;;;;;17.08;53.90;101933.09;4937951;29;19918;-84
2023/06/01 12:18:42;;;;;;;;;;;;;;;17.26;55.74;101935.06;4919066;29;19920;-84
2023/06/01 12:21:09;;;;;;;;;;;;;;;17.15;57.14;101947.09;4931302;28;20013;-84
2023/06/01 12:23:34;;;;;;;;;;;;;;;16.49;57.84;101932.16;4930112;29;19919;-85
2023/06/01 12:26:00;;;;;;;;;;;;;;;16.29;56.91;101930.38;4926620;29;19929;-85
2023/06/01 12:28:29;;;;;;;;;;;;;;;16.24;58.12;101925.00;4922009;29;19962;-82
2023/06/01 12:31:12;;;;;;;;;;;;;;;16.69;59.69;101925.00;4924093;29;19970;-86
2023/06/01 12:33:39;;;;;;;;;;;;;;;17.15;55.36;101920.03;4931203;29;19920;-83
2023/06/01 12:36:06;;;;;;;;;;;;;;;18.19;54.75;101922.94;4942623;29;20009;-82
2023/06/01 12:38:49;;;;;;;;;;;;;;;18.04;53.09;101922.34;4928846;29;19927;-84
2023/06/01 12:41:15;;;;;;;;;;;;;;;17.82;53.73;101920.19;4898909;29;19923;-84